createdAt,value
2022-09-13T00:02:06.111Z,54.38
2022-09-13T00:04:33.646Z,48.05
2022-09-13T00:07:01.127Z,52.42
2022-09-13T00:09:28.576Z,56.03
2022-09-13T00:11:56.041Z,52.53
2022-09-13T00:14:26.560Z,48.85
2022-09-13T00:16:55.383Z,25.23
2022-09-13T00:19:22.860Z,52.33
2022-09-13T00:21:50.336Z,61.13
2022-09-13T00:24:17.805Z,52.15
2022-09-13T00:26:45.755Z,51.75
2022-09-13T00:29:13.293Z,44.50
2022-09-13T00:31:41.504Z,32.97
2022-09-13T00:34:10.374Z,53.50
2022-09-13T00:36:37.838Z,48.80
2022-09-13T00:39:05.314Z,39.17
2022-09-13T00:41:33.567Z,46.92
2022-09-13T00:44:02.647Z,44.03
2022-09-13T00:46:37.335Z,26.13
2022-09-13T00:49:17.633Z,15.70
2022-09-13T00:51:50.184Z,33.43
2022-09-13T00:54:21.291Z,49.17
2022-09-13T00:56:52.243Z,47.70
2022-09-13T00:59:24.816Z,37.85
2022-09-13T01:01:55.199Z,38.40
2022-09-13T01:04:26.932Z,49.97
2022-09-13T01:06:58.176Z,53.13
2022-09-13T01:09:26.943Z,45.55
2022-09-13T01:12:00.576Z,54.03
2022-09-13T01:14:28.832Z,32.75
2022-09-13T01:16:56.427Z,30.47
2022-09-13T01:19:25.435Z,21.27
2022-09-13T01:22:21.546Z,18.40
2022-09-13T01:24:59.918Z,22.53
2022-09-13T01:27:37.104Z,30.00
2022-09-13T01:30:19.016Z,27.70
2022-09-13T01:33:07.534Z,22.27
2022-09-13T01:35:50.818Z,16.70
2022-09-13T01:38:31.259Z,41.83
2022-09-13T01:41:07.823Z,46.15
2022-09-13T01:43:47.984Z,41.20
2022-09-13T01:46:19.955Z,43.90
2022-09-13T01:48:57.814Z,35.33
2022-09-13T01:51:33.319Z,22.58
2022-09-13T01:54:13.776Z,39.60
2022-09-13T01:56:51.403Z,56.47
2022-09-13T01:59:25.238Z,48.83
2022-09-13T02:02:00.366Z,34.97
2022-09-13T02:04:31.606Z,41.80
2022-09-13T02:07:03.864Z,42.03
2022-09-13T02:09:36.346Z,28.45
2022-09-13T02:12:10.061Z,45.20
2022-09-13T02:14:40.243Z,41.75
2022-09-13T02:17:13.471Z,54.42
2022-09-13T02:19:44.722Z,50.07
2022-09-13T02:22:17.207Z,47.38
2022-09-13T02:24:49.094Z,57.73
2022-09-13T02:27:21.330Z,45.22
2022-09-13T02:29:51.841Z,48.37
2022-09-13T02:32:25.180Z,43.13
2022-09-13T02:34:57.657Z,57.25
2022-09-13T02:37:29.007Z,49.88
2022-09-13T02:40:01.093Z,62.53
2022-09-13T02:42:36.378Z,52.95
2022-09-13T02:45:04.310Z,44.60
2022-09-13T02:47:42.204Z,27.42
2022-09-13T02:50:27.068Z,33.63
2022-09-13T02:53:04.541Z,37.65
2022-09-13T02:55:40.340Z,29.65
2022-09-13T02:58:14.634Z,21.48
2022-09-13T03:00:42.549Z,27.92
2022-09-13T03:03:15.550Z,54.17
2022-09-13T03:05:44.012Z,67.25
2022-09-13T03:08:15.522Z,80.88
2022-09-13T03:10:52.397Z,92.97
2022-09-13T03:13:46.254Z,98.28
2022-09-13T03:16:30.851Z,89.40
2022-09-13T03:19:18.251Z,81.95
2022-09-13T03:22:07.929Z,93.68
2022-09-13T03:24:51.136Z,86.38
2022-09-13T03:27:26.675Z,61.13
2022-09-13T03:29:59.677Z,57.25
2022-09-13T03:32:35.977Z,40.75
2022-09-13T03:35:16.050Z,51.92
2022-09-13T03:37:53.395Z,53.40
2022-09-13T03:40:26.697Z,58.05
2022-09-13T03:42:59.838Z,53.95
2022-09-13T03:45:33.236Z,89.57
2022-09-13T03:48:03.187Z,70.53
2022-09-13T03:50:32.745Z,57.47
2022-09-13T03:53:04.331Z,67.70
2022-09-13T03:55:34.376Z,57.72
2022-09-13T03:58:02.103Z,66.70
2022-09-13T04:00:30.048Z,51.03
2022-09-13T04:02:57.810Z,42.97
2022-09-13T04:05:25.294Z,76.18
2022-09-13T04:07:54.107Z,60.90
2022-09-13T04:10:21.731Z,59.67
2022-09-13T04:12:49.358Z,58.53
2022-09-13T04:15:16.861Z,58.33
2022-09-13T04:17:44.357Z,46.88
2022-09-13T04:20:12.266Z,59.75
2022-09-13T04:22:39.739Z,70.82
2022-09-13T04:25:09.945Z,61.05
2022-09-13T04:27:37.521Z,50.38
2022-09-13T04:30:05.794Z,56.83
2022-09-13T04:32:33.713Z,53.70
2022-09-13T04:35:01.286Z,53.28
2022-09-13T04:37:28.747Z,73.20
2022-09-13T04:39:56.261Z,56.70
2022-09-13T04:42:25.120Z,58.35
2022-09-13T04:44:52.584Z,76.75
2022-09-13T04:47:20.076Z,76.20
2022-09-13T04:49:48.542Z,52.42
2022-09-13T04:52:16.081Z,60.10
2022-09-13T04:54:43.681Z,83.82
2022-09-13T04:57:12.342Z,89.80
2022-09-13T04:59:41.187Z,64.93
2022-09-13T05:02:08.701Z,68.72
2022-09-13T05:04:36.210Z,53.97
2022-09-13T05:07:03.758Z,84.80
2022-09-13T05:09:31.233Z,50.70
2022-09-13T05:11:58.690Z,53.13
2022-09-13T05:14:26.155Z,61.90
2022-09-13T05:16:54.948Z,65.40
2022-09-13T05:19:22.427Z,52.97
2022-09-13T05:21:49.879Z,73.30
2022-09-13T05:24:17.352Z,50.97
2022-09-13T05:26:44.793Z,57.70
2022-09-13T05:29:12.246Z,57.90
2022-09-13T05:31:41.631Z,53.67
2022-09-13T05:34:12.985Z,58.88
2022-09-13T05:36:41.049Z,61.47
2022-09-13T05:39:30.317Z,75.68
2022-09-13T05:42:00.959Z,53.15
2022-09-13T05:44:28.383Z,73.30
2022-09-13T05:46:55.800Z,50.25
2022-09-13T05:49:24.534Z,69.38
2022-09-13T05:51:51.958Z,46.13
2022-09-13T05:54:19.623Z,56.38
2022-09-13T05:56:47.438Z,52.83
2022-09-13T05:59:15.222Z,63.78
2022-09-13T06:01:42.816Z,56.85
2022-09-13T06:04:12.364Z,88.90
2022-09-13T06:06:41.150Z,58.05
2022-09-13T06:09:09.266Z,64.13
2022-09-13T06:11:36.679Z,55.58
2022-09-13T06:14:04.285Z,71.70
2022-09-13T06:16:31.781Z,60.58
2022-09-13T06:18:59.250Z,52.03
2022-09-13T06:21:29.186Z,76.13
2022-09-13T06:23:58.276Z,65.93
2022-09-13T06:26:27.098Z,65.25
2022-09-13T06:28:56.614Z,42.88
2022-09-13T06:31:26.146Z,52.10
2022-09-13T06:33:57.851Z,48.35
2022-09-13T06:36:25.724Z,43.58
2022-09-13T06:38:53.211Z,38.65
2022-09-13T06:41:23.675Z,48.17
2022-09-13T06:43:54.839Z,42.67
2022-09-13T06:46:25.109Z,40.35
2022-09-13T06:48:53.514Z,42.60
2022-09-13T06:51:22.676Z,47.58
2022-09-13T06:53:51.674Z,52.60
2022-09-13T06:56:23.115Z,44.03
2022-09-13T06:58:52.966Z,43.65
2022-09-13T07:01:23.106Z,40.78
2022-09-13T07:03:52.494Z,38.10
2022-09-13T07:06:22.716Z,39.35
2022-09-13T07:08:51.801Z,30.45
2022-09-13T07:11:23.066Z,28.77
2022-09-13T07:13:51.301Z,27.35
2022-09-13T07:16:20.515Z,28.67
2022-09-13T07:18:52.600Z,25.65
2022-09-13T07:21:20.570Z,23.23
2022-09-13T07:23:48.086Z,23.35
2022-09-13T07:26:15.871Z,21.80
2022-09-13T07:28:47.349Z,21.30
2022-09-13T07:31:16.796Z,22.95
2022-09-13T07:33:46.239Z,19.08
2022-09-13T07:36:14.759Z,24.85
2022-09-13T07:38:45.170Z,24.88
2022-09-13T07:41:14.877Z,32.83
2022-09-13T07:43:44.537Z,23.58
2022-09-13T07:46:13.965Z,40.47
2022-09-13T07:48:43.260Z,28.23
2022-09-13T07:51:12.950Z,30.63
2022-09-13T07:53:42.455Z,46.42
2022-09-13T07:56:11.557Z,42.15
2022-09-13T07:58:40.544Z,30.70
2022-09-13T08:01:12.011Z,32.83
2022-09-13T08:03:39.655Z,28.92
2022-09-13T08:06:08.626Z,23.30
2022-09-13T08:08:37.222Z,17.38
2022-09-13T08:11:06.204Z,15.13
2022-09-13T08:13:34.758Z,20.65
2022-09-13T08:16:04.313Z,21.40
2022-09-13T08:18:33.551Z,18.02
2022-09-13T08:21:02.384Z,15.13
2022-09-13T08:23:29.906Z,16.05
2022-09-13T08:26:02.680Z,17.08
2022-09-13T08:28:31.502Z,21.77
2022-09-13T08:31:04.664Z,17.27
2022-09-13T08:33:34.179Z,15.45
2022-09-13T08:36:02.324Z,16.08
2022-09-13T08:38:30.289Z,17.55
2022-09-13T08:41:00.735Z,17.30
2022-09-13T08:43:49.703Z,11.15
2022-09-13T08:46:24.361Z,12.05
2022-09-13T08:48:57.866Z,13.07
2022-09-13T08:51:33.277Z,12.38
2022-09-13T08:54:02.956Z,10.13
2022-09-13T08:56:39.290Z,10.15
2022-09-13T08:59:36.759Z,12.07
2022-09-13T09:02:21.639Z,11.85
2022-09-13T09:04:56.695Z,11.25
2022-09-13T09:07:27.310Z,11.80
2022-09-13T09:09:57.632Z,14.40
2022-09-13T09:12:34.082Z,10.65
2022-09-13T09:15:05.921Z,11.75
2022-09-13T09:17:43.772Z,9.98
2022-09-13T09:20:25.457Z,13.27
2022-09-13T09:22:55.087Z,11.45
2022-09-13T09:25:26.087Z,13.48
2022-09-13T09:27:54.668Z,13.38
2022-09-13T09:30:22.338Z,19.27
2022-09-13T09:33:03.604Z,19.60
2022-09-13T09:35:47.523Z,16.48
2022-09-13T09:38:31.166Z,16.13
2022-09-13T09:41:04.063Z,15.60
2022-09-13T09:43:35.235Z,27.90
2022-09-13T09:46:04.987Z,17.17
2022-09-13T09:48:42.048Z,17.15
2022-09-13T09:51:14.485Z,14.60
2022-09-13T09:53:47.391Z,15.10
2022-09-13T09:56:23.677Z,18.45
2022-09-13T09:58:53.074Z,17.70
2022-09-13T10:01:25.276Z,16.52
2022-09-13T10:03:59.064Z,18.00
2022-09-13T10:06:30.186Z,26.30
2022-09-13T10:09:01.134Z,19.90
2022-09-13T10:11:43.420Z,10.20
2022-09-13T10:14:30.544Z,15.18
2022-09-13T10:17:16.397Z,13.20
2022-09-13T10:19:54.195Z,13.88
2022-09-13T10:22:23.446Z,11.80
2022-09-13T10:24:51.580Z,15.55
2022-09-13T10:27:26.828Z,17.90
2022-09-13T10:29:59.647Z,13.63
2022-09-13T10:32:28.560Z,11.45
2022-09-13T10:35:01.398Z,15.90
2022-09-13T10:37:33.597Z,16.45
2022-09-13T10:40:07.108Z,17.92
2022-09-13T10:42:34.877Z,12.48
2022-09-13T10:45:04.150Z,13.88
2022-09-13T10:47:35.694Z,14.45
2022-09-13T10:50:20.958Z,13.10
2022-09-13T10:52:51.651Z,13.57
2022-09-13T10:55:32.199Z,15.15
2022-09-13T10:58:19.551Z,12.20
2022-09-13T11:01:17.640Z,9.75
2022-09-13T11:04:22.173Z,15.63
2022-09-13T11:07:02.079Z,14.05
2022-09-13T11:09:37.627Z,15.35
2022-09-13T11:12:18.390Z,11.15
2022-09-13T11:14:58.535Z,9.40
2022-09-13T11:17:43.110Z,10.07
2022-09-13T11:20:24.269Z,13.15
2022-09-13T11:23:15.831Z,22.55
2022-09-13T11:25:58.392Z,31.13
2022-09-13T11:28:37.572Z,24.25
2022-09-13T11:31:23.219Z,22.45
2022-09-13T11:33:59.673Z,23.92
2022-09-13T11:37:06.542Z,21.90
2022-09-13T11:39:38.810Z,16.60
2022-09-13T11:42:23.099Z,15.32
2022-09-13T11:45:07.415Z,15.07
2022-09-13T11:47:46.226Z,18.88
2022-09-13T11:50:26.008Z,14.50
2022-09-13T11:53:05.670Z,13.30
2022-09-13T11:55:36.412Z,13.35
2022-09-13T11:58:11.275Z,9.63
2022-09-13T12:00:44.029Z,12.90
2022-09-13T12:03:20.756Z,15.15
2022-09-13T12:05:53.361Z,13.27
2022-09-13T12:08:24.640Z,12.73
2022-09-13T12:10:55.665Z,15.40
2022-09-13T12:13:27.418Z,18.02
2022-09-13T12:15:58.520Z,12.13
2022-09-13T12:18:29.063Z,11.95
2022-09-13T12:21:00.189Z,16.58
2022-09-13T12:23:32.679Z,12.18
2022-09-13T12:26:04.223Z,13.05
2022-09-13T12:28:38.484Z,16.23
2022-09-13T12:31:10.855Z,32.28
2022-09-13T12:33:40.815Z,16.92
2022-09-13T12:36:31.483Z,33.75
2022-09-13T12:39:21.833Z,24.25
2022-09-13T12:42:06.000Z,25.63
2022-09-13T12:44:47.622Z,48.25
2022-09-13T12:48:01.683Z,29.63
2022-09-13T12:50:51.092Z,25.08
2022-09-13T12:53:52.530Z,23.15
2022-09-13T12:56:34.127Z,29.13
2022-09-13T12:59:20.778Z,25.70
2022-09-13T13:01:52.117Z,32.97
2022-09-13T13:04:23.428Z,50.35
2022-09-13T13:06:54.580Z,47.45
2022-09-13T13:09:29.000Z,45.20
2022-09-13T13:11:58.318Z,51.25
2022-09-13T13:14:29.903Z,43.88
2022-09-13T13:17:29.833Z,34.40
2022-09-13T13:19:58.654Z,28.58
2022-09-13T13:22:49.947Z,28.67
2022-09-13T13:25:55.482Z,48.30
2022-09-13T13:28:52.396Z,39.80
2022-09-13T13:31:40.420Z,28.92
2022-09-13T13:34:28.793Z,44.08
2022-09-13T13:37:02.071Z,65.85
2022-09-13T13:39:38.283Z,47.67
2022-09-13T13:42:14.048Z,49.55
2022-09-13T13:45:15.898Z,32.75
2022-09-13T13:47:55.671Z,48.15
2022-09-13T13:50:23.649Z,48.55
2022-09-13T13:53:06.136Z,41.42
2022-09-13T13:55:46.803Z,31.83
2022-09-13T13:58:35.734Z,41.20
2022-09-13T14:01:04.208Z,41.22
2022-09-13T14:03:51.316Z,42.58
2022-09-13T14:06:24.028Z,42.55
2022-09-13T14:09:03.507Z,27.33
2022-09-13T14:11:46.514Z,19.02
2022-09-13T14:14:35.115Z,39.28
2022-09-13T14:17:36.146Z,44.15
2022-09-13T14:20:10.360Z,43.85
2022-09-13T14:22:37.831Z,39.40
2022-09-13T14:25:25.004Z,33.95
2022-09-13T14:27:57.699Z,39.70
2022-09-13T14:30:30.423Z,34.83
2022-09-13T14:32:59.611Z,28.90
2022-09-13T14:35:31.238Z,39.67
2022-09-13T14:38:12.463Z,26.30
2022-09-13T14:40:41.300Z,23.45
2022-09-13T14:43:16.710Z,32.88
2022-09-13T14:45:46.146Z,30.35
2022-09-13T14:48:19.945Z,26.27
2022-09-13T14:50:51.567Z,34.33
2022-09-13T14:53:22.253Z,21.75
2022-09-13T14:55:55.591Z,24.20
2022-09-13T14:58:27.643Z,25.30
2022-09-13T15:00:59.794Z,21.85
2022-09-13T15:03:28.133Z,22.20
2022-09-13T15:05:58.931Z,23.25
2022-09-13T15:08:47.011Z,19.88
2022-09-13T15:11:27.972Z,14.88
2022-09-13T15:14:03.329Z,31.20
2022-09-13T15:16:32.591Z,15.85
2022-09-13T15:19:29.788Z,24.63
2022-09-13T15:22:05.035Z,18.42
2022-09-13T15:24:34.922Z,16.42
2022-09-13T15:27:06.223Z,25.15
2022-09-13T15:29:37.032Z,22.38
2022-09-13T15:32:06.585Z,22.48
2022-09-13T15:34:34.106Z,25.80
2022-09-13T15:37:11.493Z,19.75
2022-09-13T15:39:48.323Z,38.00
2022-09-13T15:42:18.126Z,30.00
2022-09-13T15:44:45.567Z,42.00
2022-09-13T15:47:17.783Z,33.08
2022-09-13T15:49:51.178Z,29.25
2022-09-13T15:52:19.545Z,23.73
2022-09-13T15:54:49.198Z,19.27
2022-09-13T15:57:22.252Z,20.45
2022-09-13T15:59:49.785Z,15.35
2022-09-13T16:02:21.229Z,31.30
2022-09-13T16:04:48.993Z,17.45
2022-09-13T16:07:17.050Z,26.13
2022-09-13T16:09:44.764Z,16.48
2022-09-13T16:12:12.335Z,26.08
2022-09-13T16:14:41.263Z,18.08
2022-09-13T16:17:13.639Z,16.20
2022-09-13T16:19:41.274Z,29.15
2022-09-13T16:22:12.519Z,17.98
2022-09-13T16:24:40.306Z,23.10
2022-09-13T16:27:07.796Z,26.27
2022-09-13T16:29:35.222Z,19.38
2022-09-13T16:32:05.202Z,18.95
2022-09-13T16:34:32.656Z,21.08
2022-09-13T16:37:00.127Z,18.75
2022-09-13T16:39:27.703Z,17.85
2022-09-13T16:41:55.461Z,16.65
2022-09-13T16:44:22.940Z,17.92
2022-09-13T16:46:50.514Z,16.60
2022-09-13T16:49:19.349Z,16.83
2022-09-13T16:51:46.811Z,18.55
2022-09-13T16:54:14.267Z,20.77
2022-09-13T16:56:41.868Z,28.83
2022-09-13T16:59:09.515Z,22.02
2022-09-13T17:01:37.222Z,18.38
2022-09-13T17:04:05.830Z,15.23
2022-09-13T17:06:34.659Z,15.02
2022-09-13T17:09:05.270Z,13.52
2022-09-13T17:11:34.458Z,12.25
2022-09-13T17:14:04.306Z,14.30
2022-09-13T17:16:34.636Z,16.17
2022-09-13T17:19:04.806Z,14.45
2022-09-13T17:21:34.559Z,15.88
2022-09-13T17:24:02.781Z,18.13
2022-09-13T17:26:30.338Z,15.70
2022-09-13T17:28:57.807Z,15.02
2022-09-13T17:31:25.319Z,16.48
2022-09-13T17:33:53.174Z,15.98
2022-09-13T17:36:20.933Z,16.05
2022-09-13T17:38:50.164Z,17.23
2022-09-13T17:41:19.310Z,16.63
2022-09-13T17:43:47.812Z,16.30
2022-09-13T17:46:17.635Z,14.90
2022-09-13T17:48:45.692Z,17.25
2022-09-13T17:51:15.262Z,17.35
2022-09-13T17:53:45.286Z,20.50
2022-09-13T17:56:18.562Z,12.90
2022-09-13T17:58:46.688Z,14.32
2022-09-13T18:01:14.743Z,16.00
2022-09-13T18:03:42.493Z,13.57
2022-09-13T18:06:11.662Z,16.85
2022-09-13T18:08:39.919Z,18.33
2022-09-13T18:11:13.955Z,20.42
2022-09-13T18:13:44.129Z,15.35
2022-09-13T18:16:18.527Z,25.10
2022-09-13T18:18:48.993Z,35.40
2022-09-13T18:21:19.004Z,21.58
2022-09-13T18:23:47.751Z,15.45
2022-09-13T18:26:17.566Z,20.27
2022-09-13T18:28:47.566Z,16.00
2022-09-13T18:31:16.824Z,19.75
2022-09-13T18:33:45.063Z,22.63
2022-09-13T18:36:14.412Z,19.80
2022-09-13T18:38:43.594Z,17.35
2022-09-13T18:41:13.048Z,18.25
2022-09-13T18:43:42.309Z,17.08
2022-09-13T18:46:13.318Z,20.23
2022-09-13T18:48:42.371Z,18.65
2022-09-13T18:51:11.679Z,19.25
2022-09-13T18:53:39.976Z,19.55
2022-09-13T18:56:09.588Z,18.50
2022-09-13T18:58:38.741Z,20.48
2022-09-13T19:01:08.782Z,21.27
2022-09-13T19:03:38.538Z,20.48
2022-09-13T19:06:11.500Z,21.10
2022-09-13T19:08:39.053Z,24.05
2022-09-13T19:11:15.492Z,23.35
2022-09-13T19:13:51.465Z,23.88
2022-09-13T19:16:21.231Z,24.25
2022-09-13T19:18:51.748Z,22.25
2022-09-13T19:21:21.158Z,24.17
2022-09-13T19:23:59.566Z,24.92
2022-09-13T19:26:30.857Z,21.08
2022-09-13T19:29:05.015Z,19.67
2022-09-13T19:31:34.167Z,19.10
2022-09-13T19:34:03.704Z,22.27
2022-09-13T19:36:34.360Z,21.50
2022-09-13T19:39:02.583Z,23.60
2022-09-13T19:41:31.120Z,20.77
2022-09-13T19:44:01.134Z,20.42
2022-09-13T19:46:31.446Z,21.42
2022-09-13T19:49:00.216Z,25.95
2022-09-13T19:51:30.977Z,27.75
2022-09-13T19:54:00.097Z,23.45
2022-09-13T19:56:29.130Z,24.98
2022-09-13T19:58:57.152Z,27.45
2022-09-13T20:01:26.859Z,29.33
2022-09-13T20:03:55.842Z,25.88
2022-09-13T20:06:24.967Z,26.42
2022-09-13T20:08:58.010Z,21.85
2022-09-13T20:11:26.068Z,25.38
2022-09-13T20:13:53.664Z,19.90
2022-09-13T20:16:22.862Z,25.02
2022-09-13T20:18:50.945Z,25.48
2022-09-13T20:21:19.012Z,31.98
2022-09-13T20:23:47.410Z,26.92
2022-09-13T20:26:17.963Z,24.05
2022-09-13T20:28:47.156Z,25.10
2022-09-13T20:31:15.346Z,23.70
2022-09-13T20:33:43.456Z,29.10
2022-09-13T20:36:13.144Z,28.23
2022-09-13T20:38:41.579Z,27.58
2022-09-13T20:41:11.589Z,31.95
2022-09-13T20:43:41.641Z,32.83
2022-09-13T20:46:12.790Z,36.22
2022-09-13T20:48:40.850Z,34.30
2022-09-13T20:51:12.484Z,33.28
2022-09-13T20:53:40.447Z,32.95
2022-09-13T20:56:09.944Z,34.03
2022-09-13T20:58:38.340Z,33.15
2022-09-13T21:01:09.485Z,34.05
2022-09-13T21:03:38.622Z,36.30
2022-09-13T21:06:07.131Z,34.00
2022-09-13T21:08:42.513Z,36.67
2022-09-13T21:11:12.651Z,33.20
2022-09-13T21:13:44.492Z,35.40
2022-09-13T21:16:15.510Z,37.13
2022-09-13T21:18:44.288Z,30.55
2022-09-13T21:21:14.737Z,39.95
2022-09-13T21:23:42.948Z,39.08
2022-09-13T21:26:12.300Z,41.80
2022-09-13T21:28:42.658Z,40.35
2022-09-13T21:31:18.353Z,37.78
2022-09-13T21:33:48.419Z,36.95
2022-09-13T21:36:16.032Z,37.60
2022-09-13T21:38:43.524Z,35.42
2022-09-13T21:41:13.491Z,38.10
2022-09-13T21:43:41.834Z,39.88
2022-09-13T21:46:13.070Z,41.47
2022-09-13T21:48:43.698Z,40.58
2022-09-13T21:51:16.089Z,37.70
2022-09-13T21:53:44.613Z,35.05
2022-09-13T21:56:14.624Z,33.53
2022-09-13T21:58:42.241Z,33.33
2022-09-13T22:01:17.579Z,37.45
2022-09-13T22:03:47.539Z,39.97
2022-09-13T22:06:15.965Z,38.92
2022-09-13T22:08:45.359Z,36.97
2022-09-13T22:11:14.227Z,34.35
2022-09-13T22:13:45.459Z,36.22
2022-09-13T22:16:15.988Z,34.25
2022-09-13T22:18:43.575Z,38.22
2022-09-13T22:21:14.447Z,35.58
2022-09-13T22:23:42.275Z,35.10
2022-09-13T22:26:12.394Z,39.38
2022-09-13T22:28:39.981Z,40.95
2022-09-13T22:31:09.174Z,37.72
2022-09-13T22:33:37.773Z,36.10
2022-09-13T22:36:07.755Z,37.47
2022-09-13T22:38:37.798Z,37.97
2022-09-13T22:41:07.650Z,38.15
2022-09-13T22:43:35.804Z,36.53
2022-09-13T22:46:05.652Z,38.08
2022-09-13T22:48:33.707Z,35.72
2022-09-13T22:51:01.128Z,32.22
2022-09-13T22:53:28.752Z,42.55
2022-09-13T22:56:03.096Z,26.90
2022-09-13T22:58:31.353Z,33.88
2022-09-13T23:01:04.260Z,28.38
2022-09-13T23:03:31.942Z,27.52
2022-09-13T23:05:59.451Z,30.23
2022-09-13T23:08:27.271Z,32.17
2022-09-13T23:10:55.967Z,27.13
2022-09-13T23:13:24.860Z,31.63
2022-09-13T23:15:52.318Z,29.63
2022-09-13T23:18:19.754Z,31.80
2022-09-13T23:20:56.616Z,29.88
2022-09-13T23:23:24.090Z,33.50
2022-09-13T23:25:51.906Z,29.70
2022-09-13T23:28:19.471Z,30.00
2022-09-13T23:30:48.237Z,29.33
2022-09-13T23:33:16.780Z,34.38
2022-09-13T23:35:45.736Z,38.65
2022-09-13T23:38:13.313Z,29.02
2022-09-13T23:40:41.032Z,27.92
2022-09-13T23:43:08.636Z,33.38
2022-09-13T23:45:36.176Z,29.55
2022-09-13T23:48:05.340Z,30.45
2022-09-13T23:50:32.816Z,27.33
2022-09-13T23:53:00.389Z,32.35
2022-09-13T23:55:27.865Z,28.02
2022-09-13T23:57:55.311Z,36.90
